American Duchess — WDJ2153 — position and weather

sailwx.info

Track history (hours):
 
Tides and Currents Weather Stations Pressure Air Temp Water Temp Dewpoint Dewpoint Depression Visibility Wind Speed Wind Dir Waves Ship Positions

American Duchess

Owner: American Duchess Inc., New Albany, IN. More information available from US FCC via Universal Licensing System and Coast Guard Vessel Documentation Center.

Last reported at 2018-Jun-18 23:23 UTC. Time now 2018-Jun-22 03:00 UTC.
Position N 29°57' W 090°10'.

Length 104 m; draft 2.6 m.

Type: Passenger vessel. MMSI: 367755720.

Date/timePositionNaut miles runAvg speedWind from/ knotsBaromVisibWave heightAir tempDewpointWater temp
2018-Jun-18 23:23N 29°57' W 090°10'  
2018-Jun-14 02:31N 31°54' W 091°12'2 9.7
2018-Jun-14 02:16N 31°56' W 091°12'3 8.8
2018-Jun-14 01:54N 31°59' W 091°09'4 9.6
2018-Jun-14 01:29N 32°00' W 091°05'6 8.8
2018-Jun-14 00:49N 32°06' W 091°06'3 7.0
2018-Jun-14 00:26N 32°07' W 091°03'4 8.4
2018-Jun-14 00:00N 32°10' W 091°00'510.4
2018-Jun-13 23:31N 32°15' W 090°59'510.3
2018-Jun-13 23:00N 32°19' W 090°55'2 4.7
2018-Jun-13 22:31N 32°21' W 090°53'1 1.0
2018-Jun-13 21:58N 32°21' W 090°53'0 0.0
2018-Jun-13 21:28N 32°21' W 090°53'0 0.0
2018-Jun-13 20:58N 32°21' W 090°53'0 0.0
2018-Jun-13 20:28N 32°21' W 090°53'0 0.0
2018-Jun-13 19:58N 32°21' W 090°53'0 0.0
2018-Jun-13 19:28N 32°21' W 090°53'0 0.0
2018-Jun-13 18:58N 32°21' W 090°53'0 0.0
2018-Jun-13 18:28N 32°21' W 090°53'0 0.0
2018-Jun-13 17:58N 32°21' W 090°53'0 0.0
2018-Jun-13 17:28N 32°21' W 090°53'0 0.0
2018-Jun-13 16:58N 32°21' W 090°53'0 0.0
2018-Jun-13 16:28N 32°21' W 090°53'0 0.0
2018-Jun-13 15:58N 32°21' W 090°53'0 0.0
2018-Jun-13 15:28N 32°21' W 090°53'0 0.0
2018-Jun-13 15:00N 32°21' W 090°53'1 1.1
2018-Jun-13 14:30N 32°21' W 090°53'3 5.8
2018-Jun-13 14:00N 32°21' W 090°57'4 7.2
2018-Jun-13 13:30N 32°24' W 090°60'5 9.6
2018-Jun-13 13:00N 32°27' W 091°04'5 9.0
2018-Jun-13 12:29N 32°31' W 091°07'5 9.3
2018-Jun-13 12:00N 32°35' W 091°08'5 9.4
2018-Jun-13 11:30N 32°40' W 091°08'5 9.5
2018-Jun-13 10:56N 32°43' W 091°03'4 9.9
2018-Jun-13 10:30N 32°44' W 091°08'5 9.0
2018-Jun-13 09:59N 32°49' W 091°09'5 9.3
2018-Jun-13 09:29N 32°52' W 091°06'4 8.0
2018-Jun-13 08:58N 32°56' W 091°04'8 7.6
2018-Jun-13 07:56N 33°03' W 091°09'  
2018-Jun-09 08:30N 32°57' W 091°06'8 4.4
2018-Jun-09 06:44N 32°50' W 091°09'2 5.1
2018-Jun-09 06:18N 32°48' W 091°09'2 5.3
2018-Jun-09 05:59N 32°46' W 091°09'4 4.1
2018-Jun-09 04:55N 32°44' W 091°05'4 3.4
2018-Jun-09 03:52N 32°41' W 091°05'2 5.7
2018-Jun-09 03:30N 32°40' W 091°08'3 5.6
2018-Jun-09 02:59N 32°37' W 091°09'3 5.7
2018-Jun-09 02:30N 32°35' W 091°07'3 5.2
2018-Jun-09 01:59N 32°32' W 091°06'3 5.2
2018-Jun-09 01:30N 32°30' W 091°07'3 5.3
2018-Jun-09 01:00N 32°28' W 091°06'3 5.7
2018-Jun-09 00:30N 32°26' W 091°03'3 5.5
2018-Jun-09 00:00N 32°25' W 090°60'3 5.6
2018-Jun-08 23:30N 32°22' W 091°00'  
Track history (hours):
 
Tides and Currents Weather Stations Pressure Air Temp Water Temp Dewpoint Dewpoint Depression Visibility Wind Speed Wind Dir Waves Ship Positions

American Duchess

Owner: American Duchess Inc., New Albany, IN. More information available from US FCC via Universal Licensing System and Coast Guard Vessel Documentation Center.

Last reported at 2018-Jun-18 23:23 UTC. Time now 2018-Jun-22 03:00 UTC.
Position N 29°57' W 090°10'.

Length 104 m; draft 2.6 m.

Type: Passenger vessel. MMSI: 367755720.

Date/timePositionNaut miles runAvg speedWind from/ knotsBaromVisibWave heightAir tempDewpointWater temp
2018-Jun-18 23:23N 29°57' W 090°10'  
2018-Jun-14 02:31N 31°54' W 091°12'2 9.7
2018-Jun-14 02:16N 31°56' W 091°12'3 8.8
2018-Jun-14 01:54N 31°59' W 091°09'4 9.6
2018-Jun-14 01:29N 32°00' W 091°05'6 8.8
2018-Jun-14 00:49N 32°06' W 091°06'3 7.0
2018-Jun-14 00:26N 32°07' W 091°03'4 8.4
2018-Jun-14 00:00N 32°10' W 091°00'510.4
2018-Jun-13 23:31N 32°15' W 090°59'510.3
2018-Jun-13 23:00N 32°19' W 090°55'2 4.7
2018-Jun-13 22:31N 32°21' W 090°53'1 1.0
2018-Jun-13 21:58N 32°21' W 090°53'0 0.0
2018-Jun-13 21:28N 32°21' W 090°53'0 0.0
2018-Jun-13 20:58N 32°21' W 090°53'0 0.0
2018-Jun-13 20:28N 32°21' W 090°53'0 0.0
2018-Jun-13 19:58N 32°21' W 090°53'0 0.0
2018-Jun-13 19:28N 32°21' W 090°53'0 0.0
2018-Jun-13 18:58N 32°21' W 090°53'0 0.0
2018-Jun-13 18:28N 32°21' W 090°53'0 0.0
2018-Jun-13 17:58N 32°21' W 090°53'0 0.0
2018-Jun-13 17:28N 32°21' W 090°53'0 0.0
2018-Jun-13 16:58N 32°21' W 090°53'0 0.0
2018-Jun-13 16:28N 32°21' W 090°53'0 0.0
2018-Jun-13 15:58N 32°21' W 090°53'0 0.0
2018-Jun-13 15:28N 32°21' W 090°53'0 0.0
2018-Jun-13 15:00N 32°21' W 090°53'1 1.1
2018-Jun-13 14:30N 32°21' W 090°53'3 5.8
2018-Jun-13 14:00N 32°21' W 090°57'4 7.2
2018-Jun-13 13:30N 32°24' W 090°60'5 9.6
2018-Jun-13 13:00N 32°27' W 091°04'5 9.0
2018-Jun-13 12:29N 32°31' W 091°07'5 9.3
2018-Jun-13 12:00N 32°35' W 091°08'5 9.4
2018-Jun-13 11:30N 32°40' W 091°08'5 9.5
2018-Jun-13 10:56N 32°43' W 091°03'4 9.9
2018-Jun-13 10:30N 32°44' W 091°08'5 9.0
2018-Jun-13 09:59N 32°49' W 091°09'5 9.3
2018-Jun-13 09:29N 32°52' W 091°06'4 8.0
2018-Jun-13 08:58N 32°56' W 091°04'8 7.6
2018-Jun-13 07:56N 33°03' W 091°09'  
2018-Jun-09 08:30N 32°57' W 091°06'8 4.4
2018-Jun-09 06:44N 32°50' W 091°09'2 5.1
2018-Jun-09 06:18N 32°48' W 091°09'2 5.3
2018-Jun-09 05:59N 32°46' W 091°09'4 4.1
2018-Jun-09 04:55N 32°44' W 091°05'4 3.4
2018-Jun-09 03:52N 32°41' W 091°05'2 5.7
2018-Jun-09 03:30N 32°40' W 091°08'3 5.6
2018-Jun-09 02:59N 32°37' W 091°09'3 5.7
2018-Jun-09 02:30N 32°35' W 091°07'3 5.2
2018-Jun-09 01:59N 32°32' W 091°06'3 5.2
2018-Jun-09 01:30N 32°30' W 091°07'3 5.3
2018-Jun-09 01:00N 32°28' W 091°06'3 5.7
2018-Jun-09 00:30N 32°26' W 091°03'3 5.5
2018-Jun-09 00:00N 32°25' W 090°60'3 5.6
2018-Jun-08 23:30N 32°22' W 091°00'  

Dump ship's entire track history